Bella Coola, Canada
Current Conditions -  °F | °C
As of 5:00 PM on Monday 22 Dec 2014 (Local Time) from CBBC Reporting Station
Broken Clouds Broken Clouds  
Wind Chill: 40°   Ceiling: 14000
Heat Index: 43°   Visibility: 9mi
Dew Point: 39°   Wind: 5mph
Humidity: 87%   Direction: 150°SSE
Pressure: 30.29"   Gusts: NA
Location:  52.37°N, 126.75°W
Report Text: CBBC 230100Z AUTO 15004KT 9SM BKN140 06/04 A3029 RMK SLP259
Loading
Personal Weather Stations






























Interactive Weather Map New forecast layout! Learn more

10-Day Weather Forecast

Advertisements
Track Severe Weather on mobile